Terminal Aerodrome Forecast
Issued by NWS Wilmington, OH

Current Version | Previous Version | Graphics & Text | Print | Product List | Glossary On
Versions: 1 2 3 4 5 6 7 8 9 10 11 12 13 14
609
FTUS41 KILN 040541
TAFILN
TAF
KILN 040541Z 0406/0506 27013G22KT P6SM SCT025 OVC035
     FM040800 26011KT P6SM OVC023
     FM041500 27010KT P6SM BKN028
     FM042200 28007KT P6SM SCT028
     FM050100 28004KT P6SM SKC=

USA.gov is the U.S. government's official web portal to all federal, state and local government web resources and services.